sensor_id;sensor_type;location;lat;lon;timestamp;P1;durP1;ratioP1;P2;durP2;ratioP2
846;SDS011;410;48.954;9.474;2023-03-01T00:01:36;25.42;;;16.00;;
846;SDS011;410;48.954;9.474;2023-03-01T00:03:39;22.33;;;14.25;;
846;SDS011;410;48.954;9.474;2023-03-01T00:05:46;21.83;;;14.73;;
846;SDS011;410;48.954;9.474;2023-03-01T00:07:52;24.58;;;15.35;;
846;SDS011;410;48.954;9.474;2023-03-01T00:09:55;21.63;;;13.60;;
846;SDS011;410;48.954;9.474;2023-03-01T00:11:58;23.63;;;13.65;;
846;SDS011;410;48.954;9.474;2023-03-01T00:14:01;23.48;;;15.35;;
846;SDS011;410;48.954;9.474;2023-03-01T00:16:07;21.45;;;14.40;;
846;SDS011;410;48.954;9.474;2023-03-01T00:18:11;23.38;;;15.43;;
846;SDS011;410;48.954;9.474;2023-03-01T00:20:14;22.80;;;14.48;;
846;SDS011;410;48.954;9.474;2023-03-01T00:22:19;18.98;;;13.88;;
846;SDS011;410;48.954;9.474;2023-03-01T00:24:23;20.90;;;14.90;;
846;SDS011;410;48.954;9.474;2023-03-01T00:26:26;24.60;;;14.60;;
846;SDS011;410;48.954;9.474;2023-03-01T00:28:30;23.40;;;14.90;;
846;SDS011;410;48.954;9.474;2023-03-01T00:30:34;26.65;;;15.55;;
846;SDS011;410;48.954;9.474;2023-03-01T00:32:37;20.77;;;14.18;;
846;SDS011;410;48.954;9.474;2023-03-01T00:34:40;22.30;;;14.60;;
846;SDS011;410;48.954;9.474;2023-03-01T00:36:43;21.52;;;14.75;;
846;SDS011;410;48.954;9.474;2023-03-01T00:38:48;23.20;;;15.10;;
846;SDS011;410;48.954;9.474;2023-03-01T00:40:51;23.15;;;14.85;;
846;SDS011;410;48.954;9.474;2023-03-01T00:42:55;23.90;;;15.23;;
846;SDS011;410;48.954;9.474;2023-03-01T00:44:59;23.05;;;15.88;;
846;SDS011;410;48.954;9.474;2023-03-01T00:47:02;21.63;;;14.68;;
846;SDS011;410;48.954;9.474;2023-03-01T00:49:05;21.42;;;14.60;;
846;SDS011;410;48.954;9.474;2023-03-01T00:51:09;24.58;;;15.00;;
846;SDS011;410;48.954;9.474;2023-03-01T00:53:14;23.88;;;15.52;;
846;SDS011;410;48.954;9.474;2023-03-01T00:55:19;22.98;;;14.05;;
846;SDS011;410;48.954;9.474;2023-03-01T00:57:22;25.25;;;16.40;;
846;SDS011;410;48.954;9.474;2023-03-01T00:59:25;25.98;;;15.20;;
846;SDS011;410;48.954;9.474;2023-03-01T01:01:29;24.40;;;15.07;;
846;SDS011;410;48.954;9.474;2023-03-01T01:03:34;23.08;;;16.00;;
846;SDS011;410;48.954;9.474;2023-03-01T01:05:37;22.38;;;14.35;;
846;SDS011;410;48.954;9.474;2023-03-01T01:07:40;22.00;;;14.88;;
846;SDS011;410;48.954;9.474;2023-03-01T01:09:43;21.38;;;14.73;;
846;SDS011;410;48.954;9.474;2023-03-01T01:11:48;23.13;;;16.75;;
846;SDS011;410;48.954;9.474;2023-03-01T01:13:53;26.02;;;16.05;;
846;SDS011;410;48.954;9.474;2023-03-01T01:16:00;22.10;;;14.82;;
846;SDS011;410;48.954;9.474;2023-03-01T01:18:03;28.58;;;16.52;;
846;SDS011;410;48.954;9.474;2023-03-01T01:20:07;27.33;;;16.48;;
846;SDS011;410;48.954;9.474;2023-03-01T01:22:11;23.80;;;15.32;;
846;SDS011;410;48.954;9.474;2023-03-01T01:24:14;25.30;;;16.73;;
846;SDS011;410;48.954;9.474;2023-03-01T01:26:20;23.90;;;16.02;;
846;SDS011;410;48.954;9.474;2023-03-01T01:28:25;26.20;;;15.68;;
846;SDS011;410;48.954;9.474;2023-03-01T01:30:29;25.40;;;16.00;;
846;SDS011;410;48.954;9.474;2023-03-01T01:32:32;25.50;;;16.40;;
846;SDS011;410;48.954;9.474;2023-03-01T01:34:35;25.67;;;16.42;;
846;SDS011;410;48.954;9.474;2023-03-01T01:36:38;23.15;;;15.55;;
846;SDS011;410;48.954;9.474;2023-03-01T01:38:41;25.38;;;16.70;;
846;SDS011;410;48.954;9.474;2023-03-01T01:40:45;23.80;;;15.30;;
846;SDS011;410;48.954;9.474;2023-03-01T01:42:48;26.75;;;17.27;;
846;SDS011;410;48.954;9.474;2023-03-01T01:47:31;25.48;;;16.00;;
846;SDS011;410;48.954;9.474;2023-03-01T01:49:35;24.42;;;15.63;;
846;SDS011;410;48.954;9.474;2023-03-01T01:51:40;27.95;;;17.45;;
846;SDS011;410;48.954;9.474;2023-03-01T01:53:46;25.50;;;16.38;;
846;SDS011;410;48.954;9.474;2023-03-01T01:55:54;23.10;;;16.20;;
846;SDS011;410;48.954;9.474;2023-03-01T01:58:01;21.75;;;15.57;;
846;SDS011;410;48.954;9.474;2023-03-01T02:00:07;22.27;;;14.85;;
846;SDS011;410;48.954;9.474;2023-03-01T02:02:19;25.35;;;16.52;;
846;SDS011;410;48.954;9.474;2023-03-01T02:04:22;24.80;;;16.75;;
846;SDS011;410;48.954;9.474;2023-03-01T02:06:27;24.30;;;15.40;;
846;SDS011;410;48.954;9.474;2023-03-01T02:08:33;25.77;;;16.65;;
846;SDS011;410;48.954;9.474;2023-03-01T02:10:38;25.27;;;16.00;;
846;SDS011;410;48.954;9.474;2023-03-01T02:12:42;27.42;;;16.83;;
846;SDS011;410;48.954;9.474;2023-03-01T02:14:46;26.75;;;16.95;;
846;SDS011;410;48.954;9.474;2023-03-01T02:16:49;24.33;;;16.23;;
846;SDS011;410;48.954;9.474;2023-03-01T02:18:54;22.80;;;15.90;;
846;SDS011;410;48.954;9.474;2023-03-01T02:21:01;28.00;;;16.20;;
846;SDS011;410;48.954;9.474;2023-03-01T02:23:12;23.45;;;15.50;;
846;SDS011;410;48.954;9.474;2023-03-01T02:25:23;28.67;;;16.77;;
846;SDS011;410;48.954;9.474;2023-03-01T02:27:33;24.55;;;15.70;;
846;SDS011;410;48.954;9.474;2023-03-01T02:29:43;27.50;;;16.85;;
846;SDS011;410;48.954;9.474;2023-03-01T02:31:47;26.83;;;16.80;;
846;SDS011;410;48.954;9.474;2023-03-01T02:33:49;20.92;;;14.15;;
846;SDS011;410;48.954;9.474;2023-03-01T02:35:54;21.05;;;14.98;;
846;SDS011;410;48.954;9.474;2023-03-01T02:37:58;24.80;;;15.82;;
846;SDS011;410;48.954;9.474;2023-03-01T02:40:03;25.00;;;16.38;;
846;SDS011;410;48.954;9.474;2023-03-01T02:42:09;24.30;;;16.83;;
846;SDS011;410;48.954;9.474;2023-03-01T02:44:15;26.25;;;16.83;;
846;SDS011;410;48.954;9.474;2023-03-01T02:46:20;25.58;;;16.67;;
846;SDS011;410;48.954;9.474;2023-03-01T02:48:24;27.77;;;18.00;;
846;SDS011;410;48.954;9.474;2023-03-01T02:50:36;24.65;;;15.48;;
846;SDS011;410;48.954;9.474;2023-03-01T02:52:53;22.75;;;15.88;;
846;SDS011;410;48.954;9.474;2023-03-01T02:54:59;25.25;;;16.95;;
846;SDS011;410;48.954;9.474;2023-03-01T02:57:04;26.58;;;16.00;;
846;SDS011;410;48.954;9.474;2023-03-01T02:59:09;27.55;;;16.00;;
846;SDS011;410;48.954;9.474;2023-03-01T03:01:12;24.48;;;15.90;;
846;SDS011;410;48.954;9.474;2023-03-01T03:03:19;29.83;;;17.02;;
846;SDS011;410;48.954;9.474;2023-03-01T03:05:26;24.70;;;15.95;;
846;SDS011;410;48.954;9.474;2023-03-01T03:07:31;22.65;;;16.30;;
846;SDS011;410;48.954;9.474;2023-03-01T03:09:36;24.58;;;16.25;;
846;SDS011;410;48.954;9.474;2023-03-01T03:11:40;28.05;;;17.13;;
846;SDS011;410;48.954;9.474;2023-03-01T03:13:44;26.20;;;16.80;;
846;SDS011;410;48.954;9.474;2023-03-01T03:15:51;23.52;;;15.65;;
846;SDS011;410;48.954;9.474;2023-03-01T03:17:54;27.13;;;16.83;;
846;SDS011;410;48.954;9.474;2023-03-01T03:19:59;23.83;;;16.77;;
846;SDS011;410;48.954;9.474;2023-03-01T03:22:02;24.67;;;16.48;;
846;SDS011;410;48.954;9.474;2023-03-01T03:24:05;27.25;;;16.77;;
846;SDS011;410;48.954;9.474;2023-03-01T03:26:08;26.33;;;16.17;;
846;SDS011;410;48.954;9.474;2023-03-01T03:28:16;24.55;;;15.90;;
846;SDS011;410;48.954;9.474;2023-03-01T03:30:20;24.38;;;14.90;;
846;SDS011;410;48.954;9.474;2023-03-01T03:32:23;24.38;;;15.70;;
846;SDS011;410;48.954;9.474;2023-03-01T03:34:26;22.35;;;15.43;;
846;SDS011;410;48.954;9.474;2023-03-01T03:36:31;24.85;;;16.27;;
846;SDS011;410;48.954;9.474;2023-03-01T03:38:34;23.77;;;15.60;;
846;SDS011;410;48.954;9.474;2023-03-01T03:40:36;26.05;;;16.33;;
846;SDS011;410;48.954;9.474;2023-03-01T03:42:40;24.30;;;15.73;;
846;SDS011;410;48.954;9.474;2023-03-01T03:44:44;26.20;;;16.52;;
846;SDS011;410;48.954;9.474;2023-03-01T03:46:47;29.10;;;16.40;;
846;SDS011;410;48.954;9.474;2023-03-01T03:48:50;26.67;;;15.75;;
846;SDS011;410;48.954;9.474;2023-03-01T03:50:53;24.20;;;16.00;;
846;SDS011;410;48.954;9.474;2023-03-01T03:52:59;22.10;;;15.38;;
846;SDS011;410;48.954;9.474;2023-03-01T03:55:03;23.83;;;16.00;;
846;SDS011;410;48.954;9.474;2023-03-01T03:57:10;25.55;;;16.15;;
846;SDS011;410;48.954;9.474;2023-03-01T03:59:13;25.08;;;16.85;;
846;SDS011;410;48.954;9.474;2023-03-01T04:01:16;23.52;;;16.67;;
846;SDS011;410;48.954;9.474;2023-03-01T04:03:20;24.00;;;15.93;;
846;SDS011;410;48.954;9.474;2023-03-01T04:05:23;26.58;;;16.77;;
846;SDS011;410;48.954;9.474;2023-03-01T04:07:26;25.52;;;16.45;;
846;SDS011;410;48.954;9.474;2023-03-01T04:09:31;27.67;;;16.52;;
846;SDS011;410;48.954;9.474;2023-03-01T04:11:34;24.75;;;15.90;;
846;SDS011;410;48.954;9.474;2023-03-01T04:13:37;23.70;;;16.05;;
846;SDS011;410;48.954;9.474;2023-03-01T04:15:40;28.75;;;17.42;;
846;SDS011;410;48.954;9.474;2023-03-01T04:17:46;27.45;;;16.85;;
846;SDS011;410;48.954;9.474;2023-03-01T04:19:49;26.30;;;16.70;;
846;SDS011;410;48.954;9.474;2023-03-01T04:21:52;29.77;;;17.05;;
846;SDS011;410;48.954;9.474;2023-03-01T04:23:55;25.30;;;16.75;;
846;SDS011;410;48.954;9.474;2023-03-01T04:26:00;24.23;;;16.30;;
846;SDS011;410;48.954;9.474;2023-03-01T04:28:03;26.35;;;17.42;;
846;SDS011;410;48.954;9.474;2023-03-01T04:30:07;29.20;;;17.63;;
846;SDS011;410;48.954;9.474;2023-03-01T04:32:10;27.63;;;16.83;;
846;SDS011;410;48.954;9.474;2023-03-01T04:34:16;28.13;;;17.25;;
846;SDS011;410;48.954;9.474;2023-03-01T04:36:20;27.50;;;17.10;;
846;SDS011;410;48.954;9.474;2023-03-01T04:38:24;25.75;;;17.33;;
846;SDS011;410;48.954;9.474;2023-03-01T04:40:27;25.52;;;17.75;;
846;SDS011;410;48.954;9.474;2023-03-01T04:42:32;28.70;;;17.48;;
846;SDS011;410;48.954;9.474;2023-03-01T04:44:35;25.90;;;17.35;;
846;SDS011;410;48.954;9.474;2023-03-01T04:46:38;28.52;;;16.73;;
846;SDS011;410;48.954;9.474;2023-03-01T04:48:42;28.90;;;16.88;;
846;SDS011;410;48.954;9.474;2023-03-01T04:50:46;30.67;;;19.65;;
846;SDS011;410;48.954;9.474;2023-03-01T04:52:49;25.98;;;16.80;;
846;SDS011;410;48.954;9.474;2023-03-01T04:54:52;28.80;;;18.10;;
846;SDS011;410;48.954;9.474;2023-03-01T04:56:55;26.10;;;17.80;;
846;SDS011;410;48.954;9.474;2023-03-01T04:58:59;28.38;;;17.45;;
846;SDS011;410;48.954;9.474;2023-03-01T05:01:10;28.08;;;17.45;;
846;SDS011;410;48.954;9.474;2023-03-01T05:03:17;28.52;;;17.60;;
846;SDS011;410;48.954;9.474;2023-03-01T05:05:21;26.30;;;17.65;;
846;SDS011;410;48.954;9.474;2023-03-01T05:07:27;28.92;;;17.83;;
846;SDS011;410;48.954;9.474;2023-03-01T05:09:32;26.60;;;17.67;;
846;SDS011;410;48.954;9.474;2023-03-01T05:11:35;29.23;;;17.60;;
846;SDS011;410;48.954;9.474;2023-03-01T05:13:39;26.05;;;17.52;;
846;SDS011;410;48.954;9.474;2023-03-01T05:15:43;25.38;;;17.10;;
846;SDS011;410;48.954;9.474;2023-03-01T05:17:47;29.30;;;18.77;;
846;SDS011;410;48.954;9.474;2023-03-01T05:19:50;29.40;;;18.27;;
846;SDS011;410;48.954;9.474;2023-03-01T05:21:53;28.85;;;18.10;;
846;SDS011;410;48.954;9.474;2023-03-01T05:24:06;25.70;;;16.55;;
846;SDS011;410;48.954;9.474;2023-03-01T05:26:13;29.48;;;18.05;;
846;SDS011;410;48.954;9.474;2023-03-01T05:28:37;28.52;;;17.52;;
846;SDS011;410;48.954;9.474;2023-03-01T05:30:41;26.55;;;17.27;;
846;SDS011;410;48.954;9.474;2023-03-01T05:32:46;28.30;;;18.25;;
846;SDS011;410;48.954;9.474;2023-03-01T05:34:51;27.58;;;17.23;;
846;SDS011;410;48.954;9.474;2023-03-01T05:36:56;31.38;;;19.88;;
846;SDS011;410;48.954;9.474;2023-03-01T05:39:00;27.75;;;18.50;;
846;SDS011;410;48.954;9.474;2023-03-01T05:41:03;26.27;;;18.25;;
846;SDS011;410;48.954;9.474;2023-03-01T05:43:07;29.30;;;18.25;;
846;SDS011;410;48.954;9.474;2023-03-01T05:45:10;27.98;;;17.15;;
846;SDS011;410;48.954;9.474;2023-03-01T05:47:13;31.83;;;17.75;;
846;SDS011;410;48.954;9.474;2023-03-01T05:49:18;24.88;;;17.80;;
846;SDS011;410;48.954;9.474;2023-03-01T05:51:21;25.27;;;17.27;;
846;SDS011;410;48.954;9.474;2023-03-01T05:53:24;31.88;;;19.80;;
846;SDS011;410;48.954;9.474;2023-03-01T05:55:28;33.17;;;18.50;;
846;SDS011;410;48.954;9.474;2023-03-01T05:57:32;29.73;;;18.35;;
846;SDS011;410;48.954;9.474;2023-03-01T05:59:35;35.83;;;19.55;;
846;SDS011;410;48.954;9.474;2023-03-01T06:01:38;26.70;;;18.15;;
846;SDS011;410;48.954;9.474;2023-03-01T06:03:41;30.35;;;18.40;;
846;SDS011;410;48.954;9.474;2023-03-01T06:05:46;26.27;;;17.70;;
846;SDS011;410;48.954;9.474;2023-03-01T06:07:49;28.85;;;17.38;;
846;SDS011;410;48.954;9.474;2023-03-01T06:09:53;28.40;;;18.17;;
846;SDS011;410;48.954;9.474;2023-03-01T06:11:56;31.38;;;18.48;;
846;SDS011;410;48.954;9.474;2023-03-01T06:13:59;28.65;;;17.27;;
846;SDS011;410;48.954;9.474;2023-03-01T06:16:04;29.27;;;19.70;;
846;SDS011;410;48.954;9.474;2023-03-01T06:18:08;27.85;;;17.48;;
846;SDS011;410;48.954;9.474;2023-03-01T06:20:12;28.27;;;17.63;;
846;SDS011;410;48.954;9.474;2023-03-01T06:22:18;27.50;;;18.10;;
846;SDS011;410;48.954;9.474;2023-03-01T06:24:21;30.58;;;17.67;;
846;SDS011;410;48.954;9.474;2023-03-01T06:26:24;26.17;;;17.35;;
846;SDS011;410;48.954;9.474;2023-03-01T06:28:27;31.17;;;17.67;;
846;SDS011;410;48.954;9.474;2023-03-01T06:30:30;30.90;;;17.90;;
846;SDS011;410;48.954;9.474;2023-03-01T06:32:33;27.75;;;17.35;;
846;SDS011;410;48.954;9.474;2023-03-01T06:34:37;28.70;;;18.27;;
846;SDS011;410;48.954;9.474;2023-03-01T06:36:40;29.20;;;18.73;;
846;SDS011;410;48.954;9.474;2023-03-01T06:38:45;28.45;;;18.27;;
846;SDS011;410;48.954;9.474;2023-03-01T06:40:51;35.67;;;19.02;;
846;SDS011;410;48.954;9.474;2023-03-01T06:42:55;30.15;;;18.88;;
846;SDS011;410;48.954;9.474;2023-03-01T06:44:58;27.42;;;17.90;;
846;SDS011;410;48.954;9.474;2023-03-01T06:47:02;31.70;;;19.52;;
846;SDS011;410;48.954;9.474;2023-03-01T06:49:05;27.02;;;17.60;;
846;SDS011;410;48.954;9.474;2023-03-01T06:51:10;29.77;;;18.45;;
846;SDS011;410;48.954;9.474;2023-03-01T06:53:14;29.17;;;18.05;;
846;SDS011;410;48.954;9.474;2023-03-01T06:55:18;29.20;;;18.40;;
846;SDS011;410;48.954;9.474;2023-03-01T06:57:21;28.13;;;18.30;;
846;SDS011;410;48.954;9.474;2023-03-01T06:59:25;30.65;;;18.75;;
846;SDS011;410;48.954;9.474;2023-03-01T07:01:28;24.70;;;16.20;;
846;SDS011;410;48.954;9.474;2023-03-01T07:03:32;31.45;;;18.55;;
846;SDS011;410;48.954;9.474;2023-03-01T07:05:35;28.70;;;18.38;;
846;SDS011;410;48.954;9.474;2023-03-01T07:07:38;28.40;;;17.90;;
846;SDS011;410;48.954;9.474;2023-03-01T07:09:41;27.25;;;17.38;;
846;SDS011;410;48.954;9.474;2023-03-01T07:11:46;31.00;;;17.33;;
846;SDS011;410;48.954;9.474;2023-03-01T07:13:49;29.13;;;18.15;;
846;SDS011;410;48.954;9.474;2023-03-01T07:15:52;28.95;;;18.40;;
846;SDS011;410;48.954;9.474;2023-03-01T07:17:56;27.13;;;18.52;;
846;SDS011;410;48.954;9.474;2023-03-01T07:19:59;29.88;;;18.50;;
846;SDS011;410;48.954;9.474;2023-03-01T07:22:02;32.60;;;18.42;;
846;SDS011;410;48.954;9.474;2023-03-01T07:24:09;28.02;;;18.05;;
846;SDS011;410;48.954;9.474;2023-03-01T07:26:12;30.25;;;18.00;;
846;SDS011;410;48.954;9.474;2023-03-01T07:28:17;32.33;;;21.30;;
846;SDS011;410;48.954;9.474;2023-03-01T07:30:20;26.00;;;17.23;;
846;SDS011;410;48.954;9.474;2023-03-01T07:32:24;26.85;;;18.45;;
846;SDS011;410;48.954;9.474;2023-03-01T07:34:27;25.27;;;17.67;;
846;SDS011;410;48.954;9.474;2023-03-01T07:36:30;25.30;;;16.95;;
846;SDS011;410;48.954;9.474;2023-03-01T07:38:34;29.50;;;17.70;;
846;SDS011;410;48.954;9.474;2023-03-01T07:40:37;28.23;;;19.05;;
846;SDS011;410;48.954;9.474;2023-03-01T07:42:40;25.52;;;17.70;;
846;SDS011;410;48.954;9.474;2023-03-01T07:44:45;33.13;;;18.23;;
846;SDS011;410;48.954;9.474;2023-03-01T07:46:48;34.45;;;20.02;;
846;SDS011;410;48.954;9.474;2023-03-01T07:48:51;29.33;;;19.42;;
846;SDS011;410;48.954;9.474;2023-03-01T07:50:54;28.98;;;18.10;;
846;SDS011;410;48.954;9.474;2023-03-01T07:53:00;28.70;;;18.48;;
846;SDS011;410;48.954;9.474;2023-03-01T07:55:04;27.35;;;17.83;;
846;SDS011;410;48.954;9.474;2023-03-01T07:57:08;32.92;;;19.02;;
846;SDS011;410;48.954;9.474;2023-03-01T07:59:11;28.73;;;18.90;;
846;SDS011;410;48.954;9.474;2023-03-01T08:01:17;28.63;;;19.10;;
846;SDS011;410;48.954;9.474;2023-03-01T08:03:20;25.55;;;16.30;;
846;SDS011;410;48.954;9.474;2023-03-01T08:05:24;28.10;;;18.20;;
846;SDS011;410;48.954;9.474;2023-03-01T08:07:27;29.52;;;18.73;;
846;SDS011;410;48.954;9.474;2023-03-01T08:09:30;31.73;;;19.08;;
846;SDS011;410;48.954;9.474;2023-03-01T08:11:34;25.88;;;17.35;;
846;SDS011;410;48.954;9.474;2023-03-01T08:13:37;26.38;;;17.30;;
846;SDS011;410;48.954;9.474;2023-03-01T08:15:40;31.65;;;19.42;;
846;SDS011;410;48.954;9.474;2023-03-01T08:17:45;34.83;;;19.98;;
846;SDS011;410;48.954;9.474;2023-03-01T08:19:48;43.63;;;24.98;;
846;SDS011;410;48.954;9.474;2023-03-01T08:21:51;42.97;;;24.63;;
846;SDS011;410;48.954;9.474;2023-03-01T08:23:54;38.08;;;24.35;;
846;SDS011;410;48.954;9.474;2023-03-01T08:26:04;32.55;;;18.95;;
846;SDS011;410;48.954;9.474;2023-03-01T08:28:08;32.42;;;20.88;;
846;SDS011;410;48.954;9.474;2023-03-01T08:30:12;30.98;;;20.35;;
846;SDS011;410;48.954;9.474;2023-03-01T08:32:16;29.20;;;18.48;;
846;SDS011;410;48.954;9.474;2023-03-01T08:34:20;30.23;;;19.98;;
846;SDS011;410;48.954;9.474;2023-03-01T08:36:24;27.23;;;18.05;;
846;SDS011;410;48.954;9.474;2023-03-01T08:38:28;28.77;;;19.40;;
846;SDS011;410;48.954;9.474;2023-03-01T08:40:31;27.42;;;18.45;;
846;SDS011;410;48.954;9.474;2023-03-01T08:42:34;25.77;;;18.27;;
846;SDS011;410;48.954;9.474;2023-03-01T08:44:37;25.00;;;18.48;;
846;SDS011;410;48.954;9.474;2023-03-01T08:46:41;26.77;;;18.55;;
846;SDS011;410;48.954;9.474;2023-03-01T08:48:45;28.77;;;19.08;;
846;SDS011;410;48.954;9.474;2023-03-01T08:50:49;29.02;;;19.05;;
846;SDS011;410;48.954;9.474;2023-03-01T08:52:53;27.13;;;18.45;;
846;SDS011;410;48.954;9.474;2023-03-01T08:54:56;27.88;;;18.42;;
846;SDS011;410;48.954;9.474;2023-03-01T08:57:01;28.25;;;17.95;;
846;SDS011;410;48.954;9.474;2023-03-01T08:59:04;29.20;;;18.88;;
846;SDS011;410;48.954;9.474;2023-03-01T09:01:07;29.65;;;19.23;;
846;SDS011;410;48.954;9.474;2023-03-01T09:03:11;25.40;;;18.98;;
846;SDS011;410;48.954;9.474;2023-03-01T09:05:14;29.02;;;17.98;;
846;SDS011;410;48.954;9.474;2023-03-01T09:07:22;28.23;;;18.20;;
846;SDS011;410;48.954;9.474;2023-03-01T09:09:30;32.33;;;19.60;;
846;SDS011;410;48.954;9.474;2023-03-01T09:11:34;29.33;;;18.55;;
846;SDS011;410;48.954;9.474;2023-03-01T09:13:38;25.63;;;18.08;;
846;SDS011;410;48.954;9.474;2023-03-01T09:15:44;29.33;;;18.60;;
846;SDS011;410;48.954;9.474;2023-03-01T09:17:47;27.98;;;18.83;;
846;SDS011;410;48.954;9.474;2023-03-01T09:19:51;26.42;;;17.55;;
846;SDS011;410;48.954;9.474;2023-03-01T09:21:54;27.45;;;18.05;;
846;SDS011;410;48.954;9.474;2023-03-01T09:24:01;24.10;;;17.05;;
846;SDS011;410;48.954;9.474;2023-03-01T09:26:04;25.13;;;18.10;;
846;SDS011;410;48.954;9.474;2023-03-01T09:28:08;26.42;;;19.10;;
846;SDS011;410;48.954;9.474;2023-03-01T09:30:29;25.77;;;18.67;;
846;SDS011;410;48.954;9.474;2023-03-01T09:32:32;25.52;;;17.67;;
846;SDS011;410;48.954;9.474;2023-03-01T09:34:36;29.33;;;19.70;;
846;SDS011;410;48.954;9.474;2023-03-01T09:36:59;23.48;;;17.35;;
846;SDS011;410;48.954;9.474;2023-03-01T09:39:05;27.45;;;18.77;;
846;SDS011;410;48.954;9.474;2023-03-01T09:41:09;27.38;;;19.10;;
846;SDS011;410;48.954;9.474;2023-03-01T09:43:15;29.67;;;20.95;;
846;SDS011;410;48.954;9.474;2023-03-01T09:45:25;28.45;;;20.13;;
846;SDS011;410;48.954;9.474;2023-03-01T09:47:30;27.10;;;18.70;;
846;SDS011;410;48.954;9.474;2023-03-01T09:49:36;25.65;;;18.60;;
846;SDS011;410;48.954;9.474;2023-03-01T09:51:43;25.95;;;18.00;;
846;SDS011;410;48.954;9.474;2023-03-01T09:53:53;27.83;;;19.60;;
846;SDS011;410;48.954;9.474;2023-03-01T09:55:59;33.10;;;21.58;;
846;SDS011;410;48.954;9.474;2023-03-01T09:58:06;29.27;;;19.75;;
846;SDS011;410;48.954;9.474;2023-03-01T10:00:37;25.48;;;18.40;;
846;SDS011;410;48.954;9.474;2023-03-01T10:02:43;25.15;;;17.50;;
846;SDS011;410;48.954;9.474;2023-03-01T10:04:48;25.95;;;17.42;;
846;SDS011;410;48.954;9.474;2023-03-01T10:06:55;33.28;;;21.85;;
846;SDS011;410;48.954;9.474;2023-03-01T10:09:05;27.23;;;18.27;;
846;SDS011;410;48.954;9.474;2023-03-01T10:11:19;27.73;;;17.67;;
846;SDS011;410;48.954;9.474;2023-03-01T10:13:27;24.67;;;17.70;;
846;SDS011;410;48.954;9.474;2023-03-01T10:15:35;24.90;;;16.70;;
846;SDS011;410;48.954;9.474;2023-03-01T10:17:43;26.35;;;18.75;;
846;SDS011;410;48.954;9.474;2023-03-01T10:19:49;25.00;;;18.00;;
846;SDS011;410;48.954;9.474;2023-03-01T10:21:52;25.95;;;18.23;;
846;SDS011;410;48.954;9.474;2023-03-01T10:23:56;26.15;;;18.75;;
846;SDS011;410;48.954;9.474;2023-03-01T10:26:08;23.27;;;16.75;;
846;SDS011;410;48.954;9.474;2023-03-01T10:28:20;27.35;;;19.58;;
846;SDS011;410;48.954;9.474;2023-03-01T10:30:29;25.90;;;19.45;;
846;SDS011;410;48.954;9.474;2023-03-01T10:32:37;25.73;;;17.65;;
846;SDS011;410;48.954;9.474;2023-03-01T10:34:41;25.70;;;17.92;;
846;SDS011;410;48.954;9.474;2023-03-01T10:36:45;21.52;;;17.05;;
846;SDS011;410;48.954;9.474;2023-03-01T10:38:52;26.92;;;18.33;;
846;SDS011;410;48.954;9.474;2023-03-01T10:40:56;22.98;;;17.40;;
846;SDS011;410;48.954;9.474;2023-03-01T10:43:02;25.33;;;17.85;;
846;SDS011;410;48.954;9.474;2023-03-01T10:45:16;26.90;;;18.13;;
846;SDS011;410;48.954;9.474;2023-03-01T10:47:27;26.77;;;17.98;;
846;SDS011;410;48.954;9.474;2023-03-01T10:49:31;32.80;;;20.17;;
846;SDS011;410;48.954;9.474;2023-03-01T10:51:34;23.98;;;18.35;;
846;SDS011;410;48.954;9.474;2023-03-01T10:53:37;25.58;;;18.67;;
846;SDS011;410;48.954;9.474;2023-03-01T10:55:44;25.73;;;18.10;;
846;SDS011;410;48.954;9.474;2023-03-01T10:57:47;25.88;;;19.65;;
846;SDS011;410;48.954;9.474;2023-03-01T10:59:51;23.35;;;17.05;;
846;SDS011;410;48.954;9.474;2023-03-01T11:02:15;23.92;;;17.88;;
846;SDS011;410;48.954;9.474;2023-03-01T11:04:26;23.83;;;16.65;;
846;SDS011;410;48.954;9.474;2023-03-01T11:06:29;22.60;;;16.17;;
846;SDS011;410;48.954;9.474;2023-03-01T11:08:36;24.95;;;17.17;;
846;SDS011;410;48.954;9.474;2023-03-01T11:10:41;28.75;;;20.33;;
846;SDS011;410;48.954;9.474;2023-03-01T11:12:44;28.88;;;19.98;;
846;SDS011;410;48.954;9.474;2023-03-01T11:14:48;22.08;;;17.13;;
846;SDS011;410;48.954;9.474;2023-03-01T11:16:59;26.40;;;18.60;;
846;SDS011;410;48.954;9.474;2023-03-01T11:19:13;27.60;;;18.70;;
846;SDS011;410;48.954;9.474;2023-03-01T11:21:18;26.27;;;17.58;;
846;SDS011;410;48.954;9.474;2023-03-01T11:23:21;26.70;;;17.88;;
846;SDS011;410;48.954;9.474;2023-03-01T11:25:26;24.65;;;17.67;;
846;SDS011;410;48.954;9.474;2023-03-01T11:27:31;26.13;;;18.60;;
846;SDS011;410;48.954;9.474;2023-03-01T11:29:36;23.08;;;16.30;;
846;SDS011;410;48.954;9.474;2023-03-01T11:31:49;25.38;;;17.60;;
846;SDS011;410;48.954;9.474;2023-03-01T11:33:59;23.58;;;17.88;;
846;SDS011;410;48.954;9.474;2023-03-01T11:36:13;24.85;;;18.00;;
846;SDS011;410;48.954;9.474;2023-03-01T11:38:21;23.35;;;16.70;;
846;SDS011;410;48.954;9.474;2023-03-01T11:40:26;21.92;;;16.00;;
846;SDS011;410;48.954;9.474;2023-03-01T11:42:38;22.67;;;16.45;;
846;SDS011;410;48.954;9.474;2023-03-01T11:44:47;21.40;;;15.93;;
846;SDS011;410;48.954;9.474;2023-03-01T11:46:56;21.40;;;16.13;;
846;SDS011;410;48.954;9.474;2023-03-01T11:49:25;20.63;;;15.95;;
846;SDS011;410;48.954;9.474;2023-03-01T11:52:12;21.05;;;15.82;;
846;SDS011;410;48.954;9.474;2023-03-01T11:54:27;24.38;;;16.30;;
846;SDS011;410;48.954;9.474;2023-03-01T11:56:35;20.55;;;16.42;;
846;SDS011;410;48.954;9.474;2023-03-01T11:58:46;23.67;;;15.77;;
846;SDS011;410;48.954;9.474;2023-03-01T12:01:10;23.13;;;16.42;;
846;SDS011;410;48.954;9.474;2023-03-01T12:03:32;22.27;;;16.92;;
846;SDS011;410;48.954;9.474;2023-03-01T12:08:27;24.85;;;16.35;;
846;SDS011;410;48.954;9.474;2023-03-01T12:10:37;23.63;;;17.10;;
846;SDS011;410;48.954;9.474;2023-03-01T12:12:48;25.10;;;17.08;;
846;SDS011;410;48.954;9.474;2023-03-01T12:15:05;24.50;;;16.35;;
846;SDS011;410;48.954;9.474;2023-03-01T12:20:00;27.55;;;17.33;;
846;SDS011;410;48.954;9.474;2023-03-01T12:22:16;26.70;;;16.83;;
846;SDS011;410;48.954;9.474;2023-03-01T12:24:29;21.75;;;16.00;;
846;SDS011;410;48.954;9.474;2023-03-01T12:26:43;22.10;;;15.50;;
846;SDS011;410;48.954;9.474;2023-03-01T12:29:08;21.60;;;15.68;;
846;SDS011;410;48.954;9.474;2023-03-01T12:33:53;19.55;;;14.98;;
846;SDS011;410;48.954;9.474;2023-03-01T12:36:08;22.77;;;16.35;;
846;SDS011;410;48.954;9.474;2023-03-01T12:38:29;22.00;;;15.57;;
846;SDS011;410;48.954;9.474;2023-03-01T12:40:43;21.17;;;15.18;;
846;SDS011;410;48.954;9.474;2023-03-01T12:42:53;21.85;;;17.33;;
846;SDS011;410;48.954;9.474;2023-03-01T12:45:20;22.10;;;16.50;;
846;SDS011;410;48.954;9.474;2023-03-01T12:47:55;21.13;;;15.05;;
846;SDS011;410;48.954;9.474;2023-03-01T12:50:05;22.38;;;15.95;;
846;SDS011;410;48.954;9.474;2023-03-01T12:52:16;23.67;;;16.90;;
846;SDS011;410;48.954;9.474;2023-03-01T12:54:25;26.08;;;16.90;;
846;SDS011;410;48.954;9.474;2023-03-01T12:56:32;23.50;;;18.15;;
846;SDS011;410;48.954;9.474;2023-03-01T12:58:40;23.98;;;16.95;;
846;SDS011;410;48.954;9.474;2023-03-01T13:00:55;24.10;;;17.98;;
846;SDS011;410;48.954;9.474;2023-03-01T13:03:11;28.60;;;18.80;;
846;SDS011;410;48.954;9.474;2023-03-01T13:05:24;26.98;;;19.52;;
846;SDS011;410;48.954;9.474;2023-03-01T13:07:35;28.33;;;19.30;;
846;SDS011;410;48.954;9.474;2023-03-01T13:09:41;24.10;;;17.70;;
846;SDS011;410;48.954;9.474;2023-03-01T13:11:49;24.27;;;18.10;;
846;SDS011;410;48.954;9.474;2023-03-01T13:13:52;26.13;;;18.63;;